Date,TemperatureHighF,TemperatureAvgF,TemperatureLowF,DewpointHighF,DewpointAvgF,DewpointLowF,HumidityHigh,HumidityAvg,HumidityLow,PressureMaxIn,PressureMinIn,WindSpeedMaxMPH,WindSpeedAvgMPH,GustSpeedMaxMPH,PrecipitationSumIn
2013-3-1,38,35,32,34,32,31,98,92,79,0.00,40.00,7,1,15,0.24
2013-3-2,42,33,24,33,29,22,98,85,52,0.00,40.00,4,1,7,0.04
2013-3-3,44,29,21,25,22,19,96,78,38,0.00,40.00,4,1,6,0.00
2013-3-4,40,25,14,21,16,13,95,73,35,0.00,40.00,6,1,7,0.00
2013-3-5,41,24,8,18,13,6,94,68,29,0.00,40.00,4,1,6,0.00
2013-3-6,42,25,10,21,15,9,96,72,32,0.00,40.00,3,1,5,0.00
2013-3-7,38,24,10,22,16,9,96,76,41,0.00,40.00,5,1,9,0.00
2013-3-8,40,28,17,29,22,16,98,81,53,0.00,40.00,4,1,10,0.00
2013-3-9,39,34,32,35,32,29,99,93,78,0.00,40.00,4,1,8,0.20
2013-3-10,42,34,29,35,31,27,99,89,60,0.00,40.00,7,1,14,0.52
2013-3-11,37,32,29,31,30,28,98,91,68,0.00,40.00,3,-20,6,0.13
2013-3-12,32,28,20,31,5,-7,98,40,26,0.00,40.00,10,5,22,0.02
2013-3-13,26,18,7,-3,-6,-8,61,34,27,0.00,40.00,11,3,20,0.00
2013-3-14,27,13,0,2,-2,-5,79,54,28,0.00,40.00,6,2,13,0.00
2013-3-15,24,16,9,14,8,2,88,71,46,0.00,40.00,7,1,11,0.10
2013-3-16,31,22,13,14,10,5,92,65,37,0.00,40.00,5,2,11,0.02
2013-3-17,32,21,9,14,7,1,88,57,31,0.00,40.00,4,1,10,0.00
2013-3-18,30,16,-1,17,4,-2,94,65,30,0.00,40.00,4,1,9,0.00
2013-3-19,33,22,11,13,8,4,82,58,34,0.00,40.00,7,2,14,0.00
2013-3-20,27,18,9,5,0,-4,63,47,31,0.00,40.00,8,-19,17,0.00
2013-3-21,27,15,4,6,0,-2,81,55,31,0.00,40.00,6,2,13,0.00
2013-3-22,28,13,0,11,2,-3,91,66,35,0.00,40.00,4,1,7,0.00
2013-3-23,31,24,16,27,18,10,96,77,62,0.00,40.00,4,1,6,0.02
2013-3-24,37,31,25,30,27,25,97,86,68,0.00,40.00,2,0,4,0.04
2013-3-25,44,36,31,36,32,29,98,86,62,0.00,40.00,9,2,19,0.24
2013-3-26,38,35,28,30,24,21,91,65,54,0.00,40.00,10,4,19,0.02
2013-3-27,42,30,18,25,16,12,92,61,33,0.00,40.00,6,2,12,0.00
2013-3-28,40,29,19,19,16,13,86,61,36,0.00,40.00,5,-20,10,0.00
2013-3-29,40,32,21,28,22,17,89,68,45,0.00,40.00,9,2,16,0.00
2013-3-30,43,36,32,35,31,-100,98,85,65,0.00,40.00,7,2,12,0.04
2013-3-31,46,38,32,33,28,23,97,70,44,0.00,40.00,4,1,6,0.02